Het weer levert geen direct gevaar op.    Er zijn geen waarschuwingen afgegeven.


Onweer radar Meer informatie blitzortung!


Regen radar Meer informatie rain snow radar


Bezoek onze andere website:

Template documentation
and downloads

And another site

Forum Leuven-template

EUWEATHER.EU

Verwachtingen Meteociel


U vindt ons ook hier:

Het Weer Aktueel

UK Metoffice

European Weather Network

WeatherCloud

Weather Underground

Benelux Weer Netwerk

AWEKAS

WeatherlinkIP

HAMweather, WeatherForYou, PWS Weather

Wetterpage 24

Wetter.com



METAR rapporten vliegvelden

   
EBAW - Antwerp
Gewijzigd: 15-08-2018 00:50
Helder  
Helder  
   Wind: ZW 9.3 km/h
Wind: ZW 9.3 km/h
Temperatuur: 18°C
Dauwpunt: 14°C
Vochtigheid: 78%
Barometer: 1019 hPa
Zicht: meer dan 10 km
Bewolking: Helder
EBAW 142250Z AUTO 22005KT CAVOK 18/14 Q1019
EBLG - Li├Ęge
Gewijzigd: 15-08-2018 00:50
Grotendeels bewolkt  
Grotendeels bewolkt  
   Wind: ZW 11.1 km/h
Wind: ZW 11.1 km/h
Temperatuur: 17°C
Dauwpunt: 13°C
Vochtigheid: 77%
Barometer: 1020 hPa
Bewolking: Grotendeels bewolkt
Zicht: meer dan 10 km
Bewolking: Grotendeels bewolkt 4400 ft
EBLG 142250Z 23006KT 9999 BKN044 17/13 Q1020 NOSIG
EBCV - Mons/Bergen
Gewijzigd: 15-08-2018 00:25
Helder  
Helder  
   Wind: ZZW 9.3 km/h
Wind: ZZW 9.3 km/h
Temperatuur: 14°C
Dauwpunt: 13°C
Vochtigheid: 94%
Barometer: 1020 hPa
Bewolking: Helder
Zicht: meer dan 10 km
Bewolking: Helder
EBCV 142225Z AUTO 21005KT 9999 NCD 14/13 Q1020 BLU
EHBK - Maastricht
Gewijzigd: 15-08-2018 00:25
Grotendeels bewolkt  
Grotendeels bewolkt  
   Wind: ZW 9.3 km/h
Wind: ZW 9.3 km/h
Temperatuur: 16°C
Dauwpunt: 14°C
Vochtigheid: 88%
Barometer: 1019 hPa
Bewolking: Grotendeels bewolkt
Zicht: meer dan 10 km
Bewolking: Grotendeels bewolkt 4900 ft
EHBK 142225Z AUTO 23005KT 9999 BKN049 16/14 Q1019
ELLX - Luxemburg
Gewijzigd: 15-08-2018 00:50
Helder  
Helder  
   Wind: Westen 5.6 km/h
Wind: Westen 5.6 km/h
Temperatuur: 16°C
Dauwpunt: 14°C
Vochtigheid: 88%
Barometer: 1020 hPa
Zicht: meer dan 10 km
Bewolking: Helder
ELLX 142250Z 28003KT CAVOK 16/14 Q1020 NOSIG
EBOS - Oostende
Gewijzigd: 15-08-2018 00:50
Helder  
Helder  
   Wind: ZZW 14.8 km/h
Wind: ZZW 14.8 km/h
Temperatuur: 16°C
Dauwpunt: 13°C
Vochtigheid: 83%
Barometer: 1018 hPa
Zicht: meer dan 10 km
Bewolking: Helder
EBOS 142250Z 21008KT CAVOK 16/13 Q1018 NOSIG

Script ontwikkeld door  Saratoga-weather.org Aangepast voor de template door  Weerstation Leuven

Apparatuur in gebruik:

Weerstation
Davis VP2

Weerprogramma
Meteobridge

Weercomputer
Asus WL -330N3G

Webleverancier
Onecom

Davis VP2

Meteobridge

Asus WL -330N3G

Onecom